< < Back
Terminal Aerodrome Forecast


Current Version              Previous Versions:   1  2  3  4  5  6  7  8  9  

Terminal Aerodrome Forecast

819
FTUS42 KJAX 310200 AAA
TAFGNV
TAF AMD
KGNV 310239Z 3103/3124 35004KT P6SM SCT040 BKN080
     FM310500 34006KT P6SM SCT015 BKN040
     FM311500 32008KT P6SM FEW040=

Latest METAR

928
SAUS70 KWBC 310500 RRK
MTRGNV
METAR KGNV 310453Z AUTO 30003KT 10SM OVC044 17/14 A2991 RMK AO2 SLP125
T01670144 402560139


USA.gov is the U.S. government's official web portal to all federal, state and local government web resources and services.